Time;durP1;ratioP1;P1;durP2;ratioP2;P2;SDS_P1;SDS_P2;PMS_P1;PMS_P2;Temp;Humidity;BMP_temperature;BMP_pressure;BME280_temperature;BME280_humidity;BME280_pressure;Samples;Min_cycle;Max_cycle;Signal;HPM_P1;HPM_P2
2021/06/15 00:02:05;;;;;;;9.32;4.63;;;;;;;;;;1908109;75;20109;-74
2021/06/15 00:04:31;;;;;;;6.82;4.18;;;;;;;;;;1908139;75;20107;-74
2021/06/15 00:06:58;;;;;;;6.03;4.10;;;;;;;;;;1906522;75;20520;-76
2021/06/15 00:09:25;;;;;;;8.25;4.47;;;;;;;;;;1903268;75;20129;-76
2021/06/15 00:11:52;;;;;;;6.93;4.22;;;;;;;;;;1902682;75;20089;-76
2021/06/15 00:14:19;;;;;;;7.63;4.50;;;;;;;;;;1902816;75;20144;-76
2021/06/15 00:16:47;;;;;;;7.07;4.43;;;;;;;;;;1903129;75;20507;-76
2021/06/15 00:19:13;;;;;;;8.10;4.72;;;;;;;;;;1903088;75;20540;-77
2021/06/15 00:21:40;;;;;;;6.45;4.28;;;;;;;;;;1902943;75;20172;-76
2021/06/15 00:24:08;;;;;;;8.05;4.20;;;;;;;;;;1902884;75;20446;-76
2021/06/15 00:26:35;;;;;;;6.35;4.20;;;;;;;;;;1902855;75;20104;-76
2021/06/15 00:29:01;;;;;;;6.18;4.07;;;;;;;;;;1902690;75;20101;-76
2021/06/15 00:31:28;;;;;;;7.78;4.25;;;;;;;;;;1902773;75;20136;-75
2021/06/15 00:33:56;;;;;;;6.22;3.55;;;;;;;;;;1902413;75;20093;-77
2021/06/15 00:36:23;;;;;;;6.68;4.22;;;;;;;;;;1902358;75;20094;-76
2021/06/15 00:38:50;;;;;;;6.78;4.05;;;;;;;;;;1902600;75;20531;-76
2021/06/15 00:41:17;;;;;;;8.35;4.30;;;;;;;;;;1902551;75;20408;-76
2021/06/15 00:43:43;;;;;;;7.20;4.40;;;;;;;;;;1897239;75;20093;-76
2021/06/15 00:46:10;;;;;;;7.80;4.07;;;;;;;;;;1902608;75;20090;-74
2021/06/15 00:48:38;;;;;;;6.70;4.00;;;;;;;;;;1897300;75;20090;-75
2021/06/15 00:51:07;;;;;;;8.05;4.00;;;;;;;;;;1902669;75;20516;-76
2021/06/15 00:53:35;;;;;;;8.70;4.63;;;;;;;;;;1899168;75;20459;-75
2021/06/15 00:56:05;;;;;;;6.43;4.07;;;;;;;;;;1901937;75;20085;-75
2021/06/15 00:58:32;;;;;;;6.60;3.58;;;;;;;;;;1901709;75;20144;-77
2021/06/15 01:00:59;;;;;;;6.15;3.78;;;;;;;;;;1902059;75;20085;-76
2021/06/15 01:03:28;;;;;;;9.20;4.78;;;;;;;;;;1902243;75;20511;-76
2021/06/15 01:05:56;;;;;;;6.47;3.92;;;;;;;;;;1901685;75;20093;-75
2021/06/15 01:08:41;;;;;;;6.65;4.20;;;;;;;;;;1903137;75;20471;-75
2021/06/15 01:11:26;;;;;;;6.10;3.78;;;;;;;;;;1902998;75;20535;-75
2021/06/15 01:14:06;;;;;;;7.38;4.20;;;;;;;;;;1906446;67;20152;-77
2021/06/15 01:16:36;;;;;;;5.82;4.25;;;;;;;;;;1905969;75;20143;-76
2021/06/15 01:19:11;;;;;;;;;;;;;;;;;;1906407;75;20088;-77
2021/06/15 01:21:45;;;;;;;7.38;4.10;;;;;;;;;;1905784;75;19964;-76
2021/06/15 01:24:27;;;;;;;7.10;3.97;;;;;;;;;;1906290;75;20100;-76
2021/06/15 01:27:32;;;;;;;6.60;3.83;;;;;;;;;;1906193;75;20120;-76
2021/06/15 01:30:01;;;;;;;5.65;3.85;;;;;;;;;;1906087;75;20179;-76
2021/06/15 01:32:30;;;;;;;6.85;3.83;;;;;;;;;;1905801;75;20085;-76
2021/06/15 01:34:57;;;;;;;6.70;4.00;;;;;;;;;;1906274;75;20100;-76
2021/06/15 01:37:29;;;;;;;7.28;4.57;;;;;;;;;;1905957;75;20089;-76
2021/06/15 01:39:59;;;;;;;6.53;3.90;;;;;;;;;;1906144;75;20093;-76
2021/06/15 01:42:32;;;;;;;6.55;4.32;;;;;;;;;;1906118;75;20763;-76
2021/06/15 01:45:04;;;;;;;6.45;4.15;;;;;;;;;;1905869;75;20550;-76
2021/06/15 01:47:31;;;;;;;6.55;3.97;;;;;;;;;;1905868;75;20458;-76
2021/06/15 01:50:00;;;;;;;6.68;4.50;;;;;;;;;;1906162;75;20146;-76
2021/06/15 01:52:32;;;;;;;9.23;5.43;;;;;;;;;;1905749;75;20092;-76
2021/06/15 01:55:00;;;;;;;8.20;4.55;;;;;;;;;;1905879;75;20093;-76
2021/06/15 01:57:29;;;;;;;6.68;4.28;;;;;;;;;;1906062;75;20158;-77
2021/06/15 01:59:59;;;;;;;7.45;4.53;;;;;;;;;;1905843;75;20506;-76
2021/06/15 02:02:27;;;;;;;6.13;4.60;;;;;;;;;;1905902;75;20085;-76
2021/06/15 02:04:56;;;;;;;7.70;4.32;;;;;;;;;;1906234;75;20089;-76
2021/06/15 02:07:26;;;;;;;7.70;4.80;;;;;;;;;;1906075;75;20093;-77
2021/06/15 02:09:56;;;;;;;6.40;4.30;;;;;;;;;;1906244;75;20092;-76
2021/06/15 02:12:24;;;;;;;;;;;;;;;;;;1903193;75;20081;-76
2021/06/15 02:14:54;;;;;;;6.65;4.20;;;;;;;;;;1903064;75;20042;-76
2021/06/15 02:17:25;;;;;;;6.82;4.05;;;;;;;;;;1903276;75;20093;-76
2021/06/15 02:19:52;;;;;;;6.85;4.32;;;;;;;;;;1903196;75;20081;-76
2021/06/15 02:22:21;;;;;;;7.18;4.93;;;;;;;;;;1902797;75;20151;-76
2021/06/15 02:24:54;;;;;;;6.72;5.20;;;;;;;;;;1903230;75;20506;-76
2021/06/15 02:27:23;;;;;;;6.95;4.55;;;;;;;;;;1902946;75;20167;-77
2021/06/15 02:29:54;;;;;;;7.40;4.85;;;;;;;;;;1903165;75;20444;-76
2021/06/15 02:32:24;;;;;;;8.02;4.70;;;;;;;;;;1902839;75;20158;-77
2021/06/15 02:34:51;;;;;;;7.65;4.70;;;;;;;;;;1903106;75;20101;-76
2021/06/15 02:37:24;;;;;;;10.05;5.63;;;;;;;;;;1903266;75;20147;-76
2021/06/15 02:39:52;;;;;;;9.50;5.15;;;;;;;;;;1903316;75;20093;-77
2021/06/15 02:42:20;;;;;;;7.70;4.43;;;;;;;;;;1903057;75;20442;-76
2021/06/15 02:44:50;;;;;;;9.60;5.93;;;;;;;;;;1902929;75;20503;-76
2021/06/15 02:47:19;;;;;;;8.32;5.00;;;;;;;;;;1903140;75;20119;-77
2021/06/15 02:49:52;;;;;;;7.80;5.13;;;;;;;;;;1903557;75;20089;-76
2021/06/15 02:52:26;;;;;;;7.35;4.95;;;;;;;;;;1903150;75;20085;-76
2021/06/15 02:54:59;;;;;;;8.55;4.90;;;;;;;;;;1903074;75;20712;-76
2021/06/15 02:57:27;;;;;;;8.25;5.03;;;;;;;;;;1903038;75;20093;-76
2021/06/15 02:59:55;;;;;;;7.70;5.07;;;;;;;;;;1904272;75;20151;-76
2021/06/15 03:02:23;;;;;;;7.22;5.55;;;;;;;;;;1906153;75;20085;-77
2021/06/15 03:04:50;;;;;;;8.05;5.63;;;;;;;;;;1906192;75;20092;-76
2021/06/15 03:07:17;;;;;;;8.68;5.60;;;;;;;;;;1905901;75;20092;-76
2021/06/15 03:09:45;;;;;;;9.18;5.88;;;;;;;;;;1905984;75;20104;-76
2021/06/15 03:12:15;;;;;;;9.05;5.25;;;;;;;;;;1905478;67;20115;-76
2021/06/15 03:14:44;;;;;;;7.90;4.95;;;;;;;;;;1902858;75;20147;-76
2021/06/15 03:17:13;;;;;;;8.93;5.03;;;;;;;;;;1905761;75;20089;-76
2021/06/15 03:19:46;;;;;;;8.65;5.38;;;;;;;;;;1906647;75;20095;-76
2021/06/15 03:22:16;;;;;;;9.13;5.40;;;;;;;;;;1905992;75;20104;-76
2021/06/15 03:24:47;;;;;;;10.33;5.43;;;;;;;;;;1906595;75;20096;-75
2021/06/15 03:27:19;;;;;;;8.02;5.25;;;;;;;;;;1906427;75;20088;-76
2021/06/15 03:29:47;;;;;;;9.20;5.80;;;;;;;;;;1906742;75;20143;-76
2021/06/15 03:32:16;;;;;;;7.82;5.35;;;;;;;;;;1908286;75;20437;-76
2021/06/15 03:34:46;;;;;;;9.10;5.57;;;;;;;;;;1906291;75;20164;-76
2021/06/15 03:37:16;;;;;;;8.17;6.67;;;;;;;;;;1906100;75;20088;-76
2021/06/15 03:39:43;;;;;;;9.02;5.53;;;;;;;;;;1906200;75;20580;-76
2021/06/15 03:42:19;;;;;;;9.57;6.00;;;;;;;;;;1905695;75;20123;-76
2021/06/15 03:44:46;;;;;;;8.55;5.95;;;;;;;;;;1906297;75;20096;-76
2021/06/15 03:47:14;;;;;;;8.85;6.03;;;;;;;;;;1906189;75;20151;-76
2021/06/15 03:49:42;;;;;;;11.40;6.05;;;;;;;;;;1905981;75;20127;-75
2021/06/15 03:52:10;;;;;;;10.50;5.97;;;;;;;;;;1906099;75;20088;-76
2021/06/15 03:54:39;;;;;;;10.35;5.40;;;;;;;;;;1906074;75;20095;-76
2021/06/15 03:57:07;;;;;;;9.50;5.65;;;;;;;;;;1905843;75;20092;-76
2021/06/15 03:59:37;;;;;;;10.00;6.40;;;;;;;;;;1905960;75;20311;-76
2021/06/15 04:02:06;;;;;;;8.88;6.30;;;;;;;;;;1905692;75;20115;-77
2021/06/15 04:04:36;;;;;;;10.75;6.97;;;;;;;;;;1906068;75;20088;-76
2021/06/15 04:07:04;;;;;;;16.63;14.90;;;;;;;;;;1906120;75;20155;-76
2021/06/15 04:09:39;;;;;;;20.17;18.08;;;;;;;;;;1905764;75;20099;-76
2021/06/15 04:12:09;;;;;;;13.07;11.70;;;;;;;;;;1906074;75;20097;-77
2021/06/15 04:14:37;;;;;;;13.15;8.15;;;;;;;;;;1907009;75;20084;-77
2021/06/15 04:17:06;;;;;;;9.57;7.25;;;;;;;;;;1906737;75;20398;-76
2021/06/15 04:19:38;;;;;;;10.40;7.03;;;;;;;;;;1907450;75;20092;-76
2021/06/15 04:22:07;;;;;;;9.68;6.32;;;;;;;;;;1908155;75;20096;-76
2021/06/15 04:24:37;;;;;;;9.13;6.57;;;;;;;;;;1909233;75;20132;-75
2021/06/15 04:27:06;;;;;;;9.57;6.30;;;;;;;;;;1910626;75;20097;-76
2021/06/15 04:29:32;;;;;;;11.77;6.30;;;;;;;;;;1910279;75;20088;-76
2021/06/15 04:32:02;;;;;;;12.10;6.40;;;;;;;;;;1908457;75;20084;-76
2021/06/15 04:34:32;;;;;;;11.73;6.88;;;;;;;;;;1907806;75;20099;-77
2021/06/15 04:37:02;;;;;;;12.48;6.90;;;;;;;;;;1907554;75;20146;-76
2021/06/15 04:39:31;;;;;;;11.00;6.80;;;;;;;;;;1907939;75;20518;-76
2021/06/15 04:42:01;;;;;;;9.77;6.82;;;;;;;;;;1908219;75;20092;-76
2021/06/15 04:44:32;;;;;;;12.82;6.78;;;;;;;;;;1907954;75;20089;-78
2021/06/15 04:47:01;;;;;;;17.67;7.47;;;;;;;;;;1908385;75;20089;-76
2021/06/15 04:49:31;;;;;;;10.25;7.00;;;;;;;;;;1909617;75;20093;-76
2021/06/15 04:52:02;;;;;;;8.18;5.68;;;;;;;;;;1909601;75;20510;-76
2021/06/15 04:54:34;;;;;;;9.18;6.25;;;;;;;;;;1909042;75;20095;-77
2021/06/15 04:57:08;;;;;;;12.18;6.13;;;;;;;;;;1908087;75;20193;-76
2021/06/15 04:59:36;;;;;;;9.15;5.45;;;;;;;;;;1908338;75;20096;-76
2021/06/15 05:02:04;;;;;;;8.07;5.32;;;;;;;;;;1907832;75;20088;-76
2021/06/15 05:04:33;;;;;;;12.13;6.72;;;;;;;;;;1906965;75;20100;-76
2021/06/15 05:07:01;;;;;;;18.10;7.68;;;;;;;;;;1906423;75;20112;-76
2021/06/15 05:09:30;;;;;;;13.15;6.10;;;;;;;;;;1906412;75;20386;-76
2021/06/15 05:11:57;;;;;;;13.18;7.65;;;;;;;;;;1906960;75;20567;-76
2021/06/15 05:14:28;;;;;;;11.23;5.35;;;;;;;;;;1911496;67;20145;-77
2021/06/15 05:16:56;;;;;;;8.43;5.90;;;;;;;;;;1909358;75;20155;-76
2021/06/15 05:19:23;;;;;;;8.82;6.43;;;;;;;;;;1908968;75;20123;-76
2021/06/15 05:21:53;;;;;;;9.02;5.60;;;;;;;;;;1909188;75;20088;-76
2021/06/15 05:24:26;;;;;;;;;;;;;;;;;;1909619;75;20089;-76
2021/06/15 05:26:53;;;;;;;10.40;6.00;;;;;;;;;;1909391;75;20281;-76
2021/06/15 05:29:20;;;;;;;10.77;6.50;;;;;;;;;;1909397;75;20088;-76
2021/06/15 05:31:48;;;;;;;14.38;6.65;;;;;;;;;;1909050;75;20088;-76
2021/06/15 05:34:15;;;;;;;10.50;6.68;;;;;;;;;;1907839;75;20084;-77
2021/06/15 05:36:42;;;;;;;12.07;6.78;;;;;;;;;;1907811;75;20088;-77
2021/06/15 05:39:09;;;;;;;12.23;7.65;;;;;;;;;;1907325;75;20092;-77
2021/06/15 05:41:35;;;;;;;11.13;7.45;;;;;;;;;;1907463;75;20096;-76
2021/06/15 05:44:02;;;;;;;10.50;7.55;;;;;;;;;;1907683;75;20088;-76
2021/06/15 05:46:29;;;;;;;14.70;8.45;;;;;;;;;;1907484;75;20150;-77
2021/06/15 05:48:57;;;;;;;10.68;8.00;;;;;;;;;;1906261;75;20103;-76
2021/06/15 05:51:24;;;;;;;12.15;7.32;;;;;;;;;;1905988;75;20097;-77
2021/06/15 05:53:51;;;;;;;11.55;8.93;;;;;;;;;;1906343;75;20154;-77
2021/06/15 05:56:19;;;;;;;13.32;9.23;;;;;;;;;;1906002;75;20112;-76
2021/06/15 05:58:45;;;;;;;13.50;9.38;;;;;;;;;;1907984;75;20092;-76
2021/06/15 06:01:12;;;;;;;14.93;10.30;;;;;;;;;;1905935;75;20150;-76
2021/06/15 06:03:44;;;;;;;15.38;9.38;;;;;;;;;;1906905;75;20095;-76
2021/06/15 06:08:56;;;;;;;13.75;7.93;;;;;;;;;;1907143;75;20139;-78
2021/06/15 06:11:23;;;;;;;11.07;7.30;;;;;;;;;;1906206;75;20088;-77
2021/06/15 06:13:53;;;;;;;13.77;6.72;;;;;;;;;;1908265;67;20315;-77
2021/06/15 06:16:20;;;;;;;8.15;6.03;;;;;;;;;;1906084;75;20487;-77
2021/06/15 06:18:47;;;;;;;9.63;5.55;;;;;;;;;;1906146;75;20146;-76
2021/06/15 06:21:15;;;;;;;9.05;5.20;;;;;;;;;;1905944;75;20081;-76
2021/06/15 06:23:42;;;;;;;11.75;5.38;;;;;;;;;;1906031;75;20503;-76
2021/06/15 06:26:08;;;;;;;8.32;4.75;;;;;;;;;;1906234;75;20170;-76
2021/06/15 06:28:35;;;;;;;8.75;5.00;;;;;;;;;;1905751;75;20105;-75
2021/06/15 06:31:02;;;;;;;8.25;5.95;;;;;;;;;;1905859;75;20088;-76
2021/06/15 06:33:29;;;;;;;7.40;5.22;;;;;;;;;;1906069;75;20356;-76
2021/06/15 06:35:55;;;;;;;7.53;5.30;;;;;;;;;;1905946;75;20127;-76
2021/06/15 06:38:23;;;;;;;9.55;5.85;;;;;;;;;;1906185;75;20092;-76
2021/06/15 06:40:50;;;;;;;8.13;6.03;;;;;;;;;;1906053;75;20093;-76
2021/06/15 06:43:17;;;;;;;7.63;5.20;;;;;;;;;;1906114;75;20096;-76
2021/06/15 06:45:44;;;;;;;10.35;5.03;;;;;;;;;;1906318;75;20446;-76
2021/06/15 06:48:12;;;;;;;8.32;6.18;;;;;;;;;;1906365;75;20098;-76
2021/06/15 06:50:38;;;;;;;7.90;6.18;;;;;;;;;;1906370;75;20146;-76
2021/06/15 06:53:05;;;;;;;8.25;5.72;;;;;;;;;;1906089;75;20099;-76
2021/06/15 06:55:34;;;;;;;13.48;6.47;;;;;;;;;;1905853;75;20088;-76
2021/06/15 06:58:01;;;;;;;10.85;6.38;;;;;;;;;;1906087;75;20088;-76
2021/06/15 07:00:29;;;;;;;9.00;5.32;;;;;;;;;;1905814;75;20085;-76
2021/06/15 07:02:56;;;;;;;9.70;4.60;;;;;;;;;;1906051;75;20100;-76
2021/06/15 07:05:23;;;;;;;7.88;4.53;;;;;;;;;;1907910;75;20104;-76
2021/06/15 07:07:51;;;;;;;8.90;4.20;;;;;;;;;;1910031;75;20506;-76
2021/06/15 07:10:18;;;;;;;8.50;4.47;;;;;;;;;;1910454;75;20093;-75
2021/06/15 07:15:14;;;;;;;8.52;5.10;;;;;;;;;;1905352;67;20108;-78
2021/06/15 07:17:41;;;;;;;7.38;4.32;;;;;;;;;;1905435;75;20116;-79
2021/06/15 07:20:10;;;;;;;8.05;4.53;;;;;;;;;;1901406;75;20128;-78
2021/06/15 07:22:37;;;;;;;6.50;4.43;;;;;;;;;;1904802;75;20089;-77
2021/06/15 07:25:05;;;;;;;8.05;4.82;;;;;;;;;;1905319;75;20093;-78
2021/06/15 07:27:31;;;;;;;5.13;3.92;;;;;;;;;;1904864;75;20089;-78
2021/06/15 07:29:58;;;;;;;8.32;4.45;;;;;;;;;;1904810;75;20410;-77
2021/06/15 07:32:29;;;;;;;10.55;6.78;;;;;;;;;;1904519;75;20140;-79
2021/06/15 07:34:56;;;;;;;9.48;5.90;;;;;;;;;;1905131;75;20132;-79
2021/06/15 07:37:23;;;;;;;11.38;4.60;;;;;;;;;;1905233;75;20116;-79
2021/06/15 07:39:50;;;;;;;7.97;4.82;;;;;;;;;;1904859;75;20090;-78
2021/06/15 07:42:17;;;;;;;7.15;4.10;;;;;;;;;;1904490;75;20090;-78
2021/06/15 07:44:44;;;;;;;8.40;4.47;;;;;;;;;;1904874;75;20089;-77
2021/06/15 07:47:11;;;;;;;8.13;4.38;;;;;;;;;;1904800;75;20479;-79
2021/06/15 07:49:39;;;;;;;8.88;5.32;;;;;;;;;;1905375;75;20097;-77
2021/06/15 07:52:06;;;;;;;9.10;5.35;;;;;;;;;;1905001;75;20085;-77
2021/06/15 07:54:32;;;;;;;15.35;8.32;;;;;;;;;;1905581;75;20435;-79
2021/06/15 07:56:59;;;;;;;13.32;7.47;;;;;;;;;;1905714;75;20093;-78
2021/06/15 07:59:26;;;;;;;11.30;7.18;;;;;;;;;;1905117;75;20120;-79
2021/06/15 08:01:52;;;;;;;9.68;4.97;;;;;;;;;;1905221;75;20113;-78
2021/06/15 08:04:19;;;;;;;8.90;4.78;;;;;;;;;;1905310;75;20384;-78
2021/06/15 08:06:49;;;;;;;9.35;5.05;;;;;;;;;;1899408;76;20090;-79
2021/06/15 08:09:16;;;;;;;6.47;4.17;;;;;;;;;;1903886;75;20538;-78
2021/06/15 08:11:43;;;;;;;9.50;4.45;;;;;;;;;;1905311;75;20676;-78
2021/06/15 08:14:10;;;;;;;6.28;4.20;;;;;;;;;;1904839;75;20117;-77
2021/06/15 08:16:36;;;;;;;10.35;4.75;;;;;;;;;;1904812;75;20139;-77
2021/06/15 08:19:03;;;;;;;5.70;3.58;;;;;;;;;;1904760;75;20510;-79
2021/06/15 08:21:30;;;;;;;6.55;3.90;;;;;;;;;;1904573;75;20085;-78
2021/06/15 08:23:58;;;;;;;7.68;4.70;;;;;;;;;;1904395;75;20198;-78
2021/06/15 08:26:25;;;;;;;7.57;3.97;;;;;;;;;;1904785;75;20577;-78
2021/06/15 08:28:52;;;;;;;7.70;3.47;;;;;;;;;;1904783;75;20409;-78
2021/06/15 08:31:18;;;;;;;12.73;4.78;;;;;;;;;;1904826;75;20098;-78
2021/06/15 08:33:45;;;;;;;9.18;3.60;;;;;;;;;;1904606;75;20096;-78
2021/06/15 08:36:12;;;;;;;7.35;4.07;;;;;;;;;;1905106;75;20101;-78
2021/06/15 08:38:39;;;;;;;6.80;3.08;;;;;;;;;;1904995;75;20136;-79
2021/06/15 08:41:07;;;;;;;6.78;3.63;;;;;;;;;;1904409;75;20085;-79
2021/06/15 08:43:34;;;;;;;4.88;3.10;;;;;;;;;;1904970;75;20144;-79
2021/06/15 08:46:02;;;;;;;9.63;3.50;;;;;;;;;;1904709;75;20089;-78
2021/06/15 08:48:29;;;;;;;7.15;3.25;;;;;;;;;;1904894;75;20105;-78
2021/06/15 08:50:57;;;;;;;4.25;2.80;;;;;;;;;;1904592;75;20101;-77
2021/06/15 08:53:24;;;;;;;4.88;2.70;;;;;;;;;;1904778;75;20162;-78
2021/06/15 08:55:56;;;;;;;4.80;2.75;;;;;;;;;;1905113;75;20510;-79
2021/06/15 08:58:40;;;;;;;8.82;3.92;;;;;;;;;;1904641;75;20098;-79
2021/06/15 09:01:10;;;;;;;8.35;3.53;;;;;;;;;;1904606;75;20104;-78
2021/06/15 09:03:36;;;;;;;6.90;3.58;;;;;;;;;;1904734;75;20093;-79
2021/06/15 09:06:04;;;;;;;6.38;4.05;;;;;;;;;;1904186;75;20411;-78
2021/06/15 09:08:31;;;;;;;4.35;2.72;;;;;;;;;;1904325;75;20100;-78
2021/06/15 09:10:59;;;;;;;4.75;2.67;;;;;;;;;;1904751;75;20097;-78
2021/06/15 09:13:38;;;;;;;3.72;2.03;;;;;;;;;;1904835;75;20113;-79
2021/06/15 09:16:20;;;;;;;7.18;4.75;;;;;;;;;;1901387;75;20132;-78
2021/06/15 09:18:48;;;;;;;5.25;3.17;;;;;;;;;;1904473;75;20657;-78
2021/06/15 09:21:37;;;;;;;4.28;2.97;;;;;;;;;;1905025;75;20089;-78
2021/06/15 09:24:05;;;;;;;4.47;2.63;;;;;;;;;;1904659;75;20097;-78
2021/06/15 09:27:07;;;;;;;4.60;2.15;;;;;;;;;;1904453;75;20096;-78
2021/06/15 09:29:37;;;;;;;5.78;2.28;;;;;;;;;;1904906;75;20101;-78
2021/06/15 09:32:04;;;;;;;;;;;;;;;;;;1904155;75;20090;-79
2021/06/15 09:34:31;;;;;;;4.50;2.20;;;;;;;;;;1904805;75;20027;-79
2021/06/15 09:36:58;;;;;;;4.40;2.60;;;;;;;;;;1904940;75;20097;-79
2021/06/15 09:39:25;;;;;;;5.05;2.17;;;;;;;;;;1904826;75;20093;-78
2021/06/15 09:41:51;;;;;;;5.20;2.65;;;;;;;;;;1904625;75;20085;-79
2021/06/15 09:44:20;;;;;;;4.72;2.30;;;;;;;;;;1904497;75;20120;-79
2021/06/15 09:46:50;;;;;;;4.75;2.22;;;;;;;;;;1904671;75;20458;-77
2021/06/15 09:49:28;;;;;;;5.32;2.17;;;;;;;;;;1904262;75;20515;-78
2021/06/15 09:52:15;;;;;;;4.45;2.03;;;;;;;;;;1897336;76;20094;-79
2021/06/15 09:54:44;;;;;;;7.32;2.65;;;;;;;;;;1903876;75;20097;-80
2021/06/15 09:57:19;;;;;;;4.57;2.55;;;;;;;;;;1904272;75;20090;-78
2021/06/15 10:00:07;;;;;;;9.80;4.63;;;;;;;;;;1904471;75;20093;-78
2021/06/15 10:02:36;;;;;;;11.70;6.35;;;;;;;;;;1904297;75;20089;-77
2021/06/15 10:05:05;;;;;;;4.75;2.38;;;;;;;;;;1904815;75;20136;-78
2021/06/15 10:07:33;;;;;;;5.00;1.90;;;;;;;;;;1904222;75;20097;-77
2021/06/15 10:10:00;;;;;;;3.97;2.13;;;;;;;;;;1904407;75;20129;-77
2021/06/15 10:12:27;;;;;;;4.45;1.98;;;;;;;;;;1904666;75;20090;-78
2021/06/15 10:14:56;;;;;;;5.60;2.13;;;;;;;;;;1897626;75;20793;-77
2021/06/15 10:17:24;;;;;;;5.00;2.97;;;;;;;;;;1901934;75;20116;-79
2021/06/15 10:19:55;;;;;;;4.60;2.15;;;;;;;;;;1904209;75;20104;-78
2021/06/15 10:22:22;;;;;;;5.90;2.22;;;;;;;;;;1904892;75;20093;-78
2021/06/15 10:24:50;;;;;;;4.22;2.40;;;;;;;;;;1904414;75;20698;-79
2021/06/15 10:27:17;;;;;;;4.20;2.28;;;;;;;;;;1902316;75;20132;-79
2021/06/15 10:29:50;;;;;;;4.53;2.30;;;;;;;;;;1907534;75;20101;-79
2021/06/15 10:32:20;;;;;;;6.43;3.25;;;;;;;;;;1908663;75;20101;-78
2021/06/15 10:34:55;;;;;;;5.72;3.25;;;;;;;;;;1909020;75;20097;-78
2021/06/15 10:37:46;;;;;;;5.57;2.97;;;;;;;;;;1903943;75;20097;-78
2021/06/15 10:40:42;;;;;;;4.53;2.30;;;;;;;;;;1905132;75;20085;-78
2021/06/15 10:43:28;;;;;;;4.00;2.20;;;;;;;;;;1905050;75;20109;-78
2021/06/15 10:45:58;;;;;;;4.95;2.35;;;;;;;;;;1901192;75;20096;-79
2021/06/15 10:48:34;;;;;;;4.68;2.28;;;;;;;;;;1904337;75;20115;-79
2021/06/15 10:51:16;;;;;;;4.28;2.20;;;;;;;;;;1904606;75;20082;-80
2021/06/15 10:53:43;;;;;;;4.65;2.40;;;;;;;;;;1904253;75;20085;-79
2021/06/15 10:56:11;;;;;;;5.45;2.40;;;;;;;;;;1904275;75;20508;-78
2021/06/15 10:59:10;;;;;;;4.45;2.28;;;;;;;;;;1904453;75;20148;-78
2021/06/15 11:01:40;;;;;;;5.00;2.70;;;;;;;;;;1901588;75;20092;-78
2021/06/15 11:04:08;;;;;;;4.90;2.65;;;;;;;;;;1902829;75;20094;-78
2021/06/15 11:06:47;;;;;;;5.45;2.22;;;;;;;;;;1902574;75;20090;-78
2021/06/15 11:09:29;;;;;;;5.65;2.40;;;;;;;;;;1902605;75;20574;-78
2021/06/15 11:12:22;;;;;;;4.70;2.30;;;;;;;;;;1905279;75;20559;-79
2021/06/15 11:15:14;;;;;;;5.65;2.83;;;;;;;;;;1905135;75;20093;-79
2021/06/15 11:17:52;;;;;;;3.80;2.40;;;;;;;;;;1905921;67;20089;-79
2021/06/15 11:20:30;;;;;;;6.38;2.85;;;;;;;;;;1905093;75;20107;-77
2021/06/15 11:23:30;;;;;;;7.25;2.35;;;;;;;;;;1904928;75;20196;-78
2021/06/15 11:26:05;;;;;;;5.03;2.47;;;;;;;;;;1905381;75;20116;-79
2021/06/15 11:28:58;;;;;;;5.90;2.70;;;;;;;;;;1905146;75;20402;-78
2021/06/15 11:31:35;;;;;;;3.65;2.40;;;;;;;;;;1905087;75;20569;-78
2021/06/15 11:34:14;;;;;;;6.03;2.42;;;;;;;;;;1905389;75;20100;-79
2021/06/15 11:36:43;;;;;;;3.63;2.22;;;;;;;;;;1905232;75;20089;-79
2021/06/15 11:39:36;;;;;;;4.47;2.55;;;;;;;;;;1905172;75;20507;-78
2021/06/15 11:42:27;;;;;;;7.47;3.53;;;;;;;;;;1904863;75;20093;-79
2021/06/15 11:45:09;;;;;;;4.95;2.30;;;;;;;;;;1905099;75;20089;-79
2021/06/15 11:47:47;;;;;;;3.83;2.13;;;;;;;;;;1904999;75;20112;-78
2021/06/15 11:50:26;;;;;;;8.07;2.58;;;;;;;;;;1904776;75;20519;-78
2021/06/15 11:52:57;;;;;;;5.25;2.60;;;;;;;;;;1904643;75;20116;-80
2021/06/15 11:55:27;;;;;;;5.05;2.80;;;;;;;;;;1904100;75;20081;-78
2021/06/15 11:58:02;;;;;;;4.93;2.47;;;;;;;;;;1904791;75;20147;-80
2021/06/15 12:00:30;;;;;;;3.90;2.50;;;;;;;;;;1904033;75;20527;-78
2021/06/15 12:03:06;;;;;;;6.80;2.63;;;;;;;;;;1905819;75;20082;-78
2021/06/15 12:05:33;;;;;;;3.75;2.13;;;;;;;;;;1904561;67;20196;-79
2021/06/15 12:08:00;;;;;;;3.67;2.30;;;;;;;;;;1904536;75;20098;-79
2021/06/15 12:10:29;;;;;;;6.07;2.67;;;;;;;;;;1904466;75;20085;-78
2021/06/15 12:13:00;;;;;;;2.75;2.03;;;;;;;;;;1904181;75;20146;-78
2021/06/15 12:15:28;;;;;;;10.95;6.82;;;;;;;;;;1905357;67;20093;-77
2021/06/15 12:17:55;;;;;;;6.05;3.47;;;;;;;;;;1904057;75;20086;-78
2021/06/15 12:20:27;;;;;;;4.63;2.33;;;;;;;;;;1904299;75;20094;-79
2021/06/15 12:22:54;;;;;;;4.78;2.67;;;;;;;;;;1904128;75;20406;-78
2021/06/15 12:25:30;;;;;;;5.05;2.35;;;;;;;;;;1900610;75;20097;-78
2021/06/15 12:28:14;;;;;;;5.07;2.72;;;;;;;;;;1900436;75;20086;-78
2021/06/15 12:30:41;;;;;;;3.92;2.30;;;;;;;;;;1901605;75;20116;-78
2021/06/15 12:33:09;;;;;;;6.75;2.85;;;;;;;;;;1904069;75;20395;-79
2021/06/15 12:35:36;;;;;;;5.68;2.42;;;;;;;;;;1904481;75;20089;-80
2021/06/15 12:38:13;;;;;;;5.13;2.50;;;;;;;;;;1904353;75;20086;-77
2021/06/15 12:40:43;;;;;;;3.72;2.30;;;;;;;;;;1905022;75;20097;-79
2021/06/15 12:43:11;;;;;;;6.10;2.90;;;;;;;;;;1904099;75;20086;-79
2021/06/15 12:45:40;;;;;;;4.53;2.60;;;;;;;;;;1904509;75;20089;-77
2021/06/15 12:48:21;;;;;;;6.22;2.53;;;;;;;;;;1903835;75;20085;-78
2021/06/15 12:51:04;;;;;;;6.97;2.90;;;;;;;;;;1904472;75;20093;-79
2021/06/15 12:53:33;;;;;;;4.68;2.63;;;;;;;;;;1904330;75;20116;-78
2021/06/15 12:56:11;;;;;;;10.05;3.03;;;;;;;;;;1904340;75;20089;-77
2021/06/15 12:58:38;;;;;;;5.10;3.05;;;;;;;;;;1904394;75;20136;-78
2021/06/15 13:01:12;;;;;;;6.15;2.95;;;;;;;;;;1904493;75;20093;-79
2021/06/15 13:03:39;;;;;;;4.97;2.95;;;;;;;;;;1904367;75;20093;-79
2021/06/15 13:06:10;;;;;;;4.05;2.67;;;;;;;;;;1904596;75;20175;-78
2021/06/15 13:08:38;;;;;;;5.32;2.72;;;;;;;;;;1906306;75;20101;-79
2021/06/15 13:11:13;;;;;;;7.05;2.70;;;;;;;;;;1905530;75;20090;-78
2021/06/15 13:13:54;;;;;;;5.05;2.88;;;;;;;;;;1908347;62;20601;-76
2021/06/15 13:16:22;;;;;;;5.63;3.10;;;;;;;;;;1906019;75;20150;-75
2021/06/15 13:18:59;;;;;;;4.88;2.90;;;;;;;;;;1906038;75;20111;-75
2021/06/15 13:21:45;;;;;;;7.45;2.85;;;;;;;;;;1906129;75;20093;-75
2021/06/15 13:24:13;;;;;;;8.55;3.72;;;;;;;;;;1906114;75;20154;-76
2021/06/15 13:26:42;;;;;;;5.38;2.58;;;;;;;;;;1906192;75;20154;-76
2021/06/15 13:29:09;;;;;;;4.80;2.80;;;;;;;;;;1905761;75;20147;-76
2021/06/15 13:31:35;;;;;;;5.20;2.90;;;;;;;;;;1906007;75;20088;-75
2021/06/15 13:34:07;;;;;;;9.88;2.80;;;;;;;;;;1906173;75;20568;-75
2021/06/15 13:36:34;;;;;;;5.75;2.88;;;;;;;;;;1906159;75;20176;-76
2021/06/15 13:39:14;;;;;;;5.57;3.45;;;;;;;;;;1906064;75;20449;-76
2021/06/15 13:41:43;;;;;;;5.05;3.10;;;;;;;;;;1905693;75;20533;-76
2021/06/15 13:44:10;;;;;;;4.47;2.70;;;;;;;;;;1906221;75;20100;-77
2021/06/15 13:46:37;;;;;;;7.45;2.92;;;;;;;;;;1905769;75;20447;-77
2021/06/15 13:49:06;;;;;;;6.53;2.75;;;;;;;;;;1906086;75;20097;-77
2021/06/15 13:51:33;;;;;;;4.63;2.65;;;;;;;;;;1905647;75;20414;-76
2021/06/15 13:54:01;;;;;;;4.13;2.40;;;;;;;;;;1906259;75;20397;-75
2021/06/15 13:56:29;;;;;;;4.50;2.40;;;;;;;;;;1906171;75;20091;-76
2021/06/15 13:59:01;;;;;;;5.43;2.90;;;;;;;;;;1906080;75;20143;-75
2021/06/15 14:01:27;;;;;;;7.43;2.88;;;;;;;;;;1902712;75;20155;-76
2021/06/15 14:03:54;;;;;;;7.53;2.80;;;;;;;;;;1903111;75;20460;-76
2021/06/15 14:06:21;;;;;;;4.40;2.60;;;;;;;;;;1903064;75;20093;-76
2021/06/15 14:08:48;;;;;;;5.72;2.58;;;;;;;;;;1903027;75;20093;-76
2021/06/15 14:11:16;;;;;;;5.57;2.90;;;;;;;;;;1904281;75;20116;-75
2021/06/15 14:13:43;;;;;;;5.13;2.60;;;;;;;;;;1908210;67;20446;-75
2021/06/15 14:16:11;;;;;;;4.43;2.50;;;;;;;;;;1905902;75;20093;-76
2021/06/15 14:18:38;;;;;;;4.60;2.30;;;;;;;;;;1906087;75;20150;-76
2021/06/15 14:21:05;;;;;;;7.90;2.70;;;;;;;;;;1905904;75;20100;-76
2021/06/15 14:23:32;;;;;;;6.70;3.40;;;;;;;;;;1906045;75;20088;-76
2021/06/15 14:26:00;;;;;;;5.32;4.63;;;;;;;;;;1906045;75;20089;-76
2021/06/15 14:28:27;;;;;;;5.65;3.10;;;;;;;;;;1905728;75;20081;-76
2021/06/15 14:30:56;;;;;;;3.55;2.25;;;;;;;;;;1905495;75;20162;-77
2021/06/15 14:33:24;;;;;;;4.63;2.30;;;;;;;;;;1905801;75;20179;-76
2021/06/15 14:35:51;;;;;;;;;;;;;;;;;;1905914;75;20096;-77
2021/06/15 14:38:18;;;;;;;4.53;2.55;;;;;;;;;;1905760;75;19964;-77
2021/06/15 14:40:45;;;;;;;4.50;2.45;;;;;;;;;;1905701;75;20148;-76
2021/06/15 14:43:11;;;;;;;5.07;2.50;;;;;;;;;;1905842;75;20093;-76
2021/06/15 14:45:39;;;;;;;5.72;2.58;;;;;;;;;;1905773;75;20085;-77
2021/06/15 14:48:07;;;;;;;4.90;2.15;;;;;;;;;;1905825;75;20097;-76
2021/06/15 14:50:35;;;;;;;7.32;2.38;;;;;;;;;;1905726;75;20146;-76
2021/06/15 14:53:02;;;;;;;5.20;2.50;;;;;;;;;;1905772;75;20092;-76
2021/06/15 14:55:28;;;;;;;4.70;2.40;;;;;;;;;;1905907;75;20092;-77
2021/06/15 14:57:55;;;;;;;4.43;2.70;;;;;;;;;;1906849;75;20162;-77
2021/06/15 15:00:23;;;;;;;5.43;2.83;;;;;;;;;;1906671;75;20097;-77
2021/06/15 15:02:50;;;;;;;4.45;2.40;;;;;;;;;;1906111;75;20092;-77
2021/06/15 15:05:17;;;;;;;5.22;2.65;;;;;;;;;;1905762;75;20571;-77
2021/06/15 15:07:46;;;;;;;4.70;2.80;;;;;;;;;;1905853;75;20096;-76